sensor_id;sensor_type;location;lat;lon;timestamp;P1;durP1;ratioP1;P2;durP2;ratioP2
60722;SDS011;46574;52.818;6.516;2023-04-01T00:00:59;7.72;;;5.80;;
60722;SDS011;46574;52.818;6.516;2023-04-01T00:03:26;5.30;;;4.55;;
60722;SDS011;46574;52.818;6.516;2023-04-01T00:05:52;6.05;;;5.18;;
60722;SDS011;46574;52.818;6.516;2023-04-01T00:08:19;5.75;;;5.25;;
60722;SDS011;46574;52.818;6.516;2023-04-01T00:10:45;5.28;;;4.78;;
60722;SDS011;46574;52.818;6.516;2023-04-01T00:13:11;5.55;;;4.97;;
60722;SDS011;46574;52.818;6.516;2023-04-01T00:15:36;5.00;;;4.50;;
60722;SDS011;46574;52.818;6.516;2023-04-01T00:18:03;5.90;;;4.75;;
60722;SDS011;46574;52.818;6.516;2023-04-01T00:20:29;5.28;;;4.50;;
60722;SDS011;46574;52.818;6.516;2023-04-01T00:22:55;5.90;;;4.20;;
60722;SDS011;46574;52.818;6.516;2023-04-01T00:25:21;4.80;;;4.30;;
60722;SDS011;46574;52.818;6.516;2023-04-01T00:27:47;3.95;;;3.55;;
60722;SDS011;46574;52.818;6.516;2023-04-01T00:30:13;4.38;;;3.63;;
60722;SDS011;46574;52.818;6.516;2023-04-01T00:32:39;3.97;;;3.47;;
60722;SDS011;46574;52.818;6.516;2023-04-01T00:35:05;5.35;;;3.97;;
60722;SDS011;46574;52.818;6.516;2023-04-01T00:37:31;5.20;;;4.00;;
60722;SDS011;46574;52.818;6.516;2023-04-01T00:40:00;5.40;;;3.92;;
60722;SDS011;46574;52.818;6.516;2023-04-01T00:42:26;3.83;;;3.25;;
60722;SDS011;46574;52.818;6.516;2023-04-01T00:44:52;3.80;;;3.28;;
60722;SDS011;46574;52.818;6.516;2023-04-01T00:47:19;3.88;;;3.20;;
60722;SDS011;46574;52.818;6.516;2023-04-01T00:49:46;3.95;;;3.25;;
60722;SDS011;46574;52.818;6.516;2023-04-01T00:52:15;4.22;;;2.90;;
60722;SDS011;46574;52.818;6.516;2023-04-01T00:54:47;3.83;;;3.00;;
60722;SDS011;46574;52.818;6.516;2023-04-01T00:57:24;3.65;;;3.20;;
60722;SDS011;46574;52.818;6.516;2023-04-01T00:59:55;4.32;;;2.80;;
60722;SDS011;46574;52.818;6.516;2023-04-01T01:02:21;3.30;;;3.00;;
60722;SDS011;46574;52.818;6.516;2023-04-01T01:04:47;4.68;;;3.28;;
60722;SDS011;46574;52.818;6.516;2023-04-01T01:12:41;4.93;;;3.47;;
60722;SDS011;46574;52.818;6.516;2023-04-01T01:25:48;5.20;;;4.15;;
60722;SDS011;46574;52.818;6.516;2023-04-01T01:28:40;3.85;;;3.35;;
60722;SDS011;46574;52.818;6.516;2023-04-01T01:36:37;4.80;;;3.63;;
60722;SDS011;46574;52.818;6.516;2023-04-01T01:39:05;4.47;;;4.03;;
60722;SDS011;46574;52.818;6.516;2023-04-01T01:41:34;4.53;;;3.88;;
60722;SDS011;46574;52.818;6.516;2023-04-01T01:44:02;3.93;;;3.43;;
60722;SDS011;46574;52.818;6.516;2023-04-01T01:46:31;4.88;;;4.35;;
60722;SDS011;46574;52.818;6.516;2023-04-01T01:48:57;5.13;;;3.90;;
60722;SDS011;46574;52.818;6.516;2023-04-01T01:51:24;7.03;;;4.70;;
60722;SDS011;46574;52.818;6.516;2023-04-01T01:53:52;6.00;;;4.45;;
60722;SDS011;46574;52.818;6.516;2023-04-01T01:56:19;5.20;;;4.43;;
60722;SDS011;46574;52.818;6.516;2023-04-01T01:58:52;4.32;;;3.92;;
60722;SDS011;46574;52.818;6.516;2023-04-01T02:01:24;3.90;;;3.53;;
60722;SDS011;46574;52.818;6.516;2023-04-01T02:03:52;5.35;;;4.25;;
60722;SDS011;46574;52.818;6.516;2023-04-01T02:06:21;5.07;;;4.30;;
60722;SDS011;46574;52.818;6.516;2023-04-01T02:11:23;4.05;;;3.75;;
60722;SDS011;46574;52.818;6.516;2023-04-01T02:13:57;4.75;;;4.18;;
60722;SDS011;46574;52.818;6.516;2023-04-01T02:16:28;7.25;;;4.50;;
60722;SDS011;46574;52.818;6.516;2023-04-01T02:18:59;5.50;;;4.47;;
60722;SDS011;46574;52.818;6.516;2023-04-01T02:21:29;3.90;;;3.50;;
60722;SDS011;46574;52.818;6.516;2023-04-01T02:23:57;4.88;;;3.70;;
60722;SDS011;46574;52.818;6.516;2023-04-01T02:26:25;5.32;;;3.40;;
60722;SDS011;46574;52.818;6.516;2023-04-01T02:28:52;3.80;;;3.38;;
60722;SDS011;46574;52.818;6.516;2023-04-01T02:31:21;5.35;;;4.22;;
60722;SDS011;46574;52.818;6.516;2023-04-01T02:33:48;4.43;;;3.67;;
60722;SDS011;46574;52.818;6.516;2023-04-01T02:36:15;4.00;;;3.50;;
60722;SDS011;46574;52.818;6.516;2023-04-01T02:38:42;5.15;;;4.13;;
60722;SDS011;46574;52.818;6.516;2023-04-01T02:41:10;4.32;;;3.72;;
60722;SDS011;46574;52.818;6.516;2023-04-01T02:43:36;3.92;;;3.40;;
60722;SDS011;46574;52.818;6.516;2023-04-01T02:46:02;4.22;;;3.45;;
60722;SDS011;46574;52.818;6.516;2023-04-01T02:48:28;3.85;;;3.10;;
60722;SDS011;46574;52.818;6.516;2023-04-01T02:50:54;5.20;;;3.75;;
60722;SDS011;46574;52.818;6.516;2023-04-01T02:53:21;5.10;;;3.65;;
60722;SDS011;46574;52.818;6.516;2023-04-01T02:55:47;4.35;;;3.67;;
60722;SDS011;46574;52.818;6.516;2023-04-01T02:58:15;3.75;;;3.38;;
60722;SDS011;46574;52.818;6.516;2023-04-01T03:00:41;3.90;;;3.45;;
60722;SDS011;46574;52.818;6.516;2023-04-01T03:03:08;5.38;;;4.88;;
60722;SDS011;46574;52.818;6.516;2023-04-01T03:05:34;4.78;;;4.38;;
60722;SDS011;46574;52.818;6.516;2023-04-01T03:08:00;4.70;;;4.30;;
60722;SDS011;46574;52.818;6.516;2023-04-01T03:10:27;5.88;;;5.38;;
60722;SDS011;46574;52.818;6.516;2023-04-01T03:12:53;7.05;;;6.45;;
60722;SDS011;46574;52.818;6.516;2023-04-01T03:15:18;6.15;;;4.82;;
60722;SDS011;46574;52.818;6.516;2023-04-01T03:17:44;6.10;;;5.60;;
60722;SDS011;46574;52.818;6.516;2023-04-01T03:20:11;4.40;;;4.10;;
60722;SDS011;46574;52.818;6.516;2023-04-01T03:22:38;4.25;;;3.72;;
60722;SDS011;46574;52.818;6.516;2023-04-01T03:25:05;5.35;;;4.30;;
60722;SDS011;46574;52.818;6.516;2023-04-01T03:27:32;3.97;;;3.57;;
60722;SDS011;46574;52.818;6.516;2023-04-01T03:30:00;3.60;;;3.30;;
60722;SDS011;46574;52.818;6.516;2023-04-01T03:32:26;3.47;;;3.10;;
60722;SDS011;46574;52.818;6.516;2023-04-01T03:34:52;3.30;;;2.97;;
60722;SDS011;46574;52.818;6.516;2023-04-01T03:37:18;4.00;;;3.25;;
60722;SDS011;46574;52.818;6.516;2023-04-01T03:39:44;4.25;;;3.53;;
60722;SDS011;46574;52.818;6.516;2023-04-01T03:42:10;4.35;;;3.95;;
60722;SDS011;46574;52.818;6.516;2023-04-01T03:44:36;4.65;;;3.97;;
60722;SDS011;46574;52.818;6.516;2023-04-01T03:47:02;6.32;;;4.85;;
60722;SDS011;46574;52.818;6.516;2023-04-01T03:49:27;5.80;;;4.97;;
60722;SDS011;46574;52.818;6.516;2023-04-01T03:51:53;4.18;;;3.78;;
60722;SDS011;46574;52.818;6.516;2023-04-01T03:54:19;4.22;;;3.70;;
60722;SDS011;46574;52.818;6.516;2023-04-01T03:56:45;4.65;;;4.10;;
60722;SDS011;46574;52.818;6.516;2023-04-01T03:59:11;4.75;;;4.30;;
60722;SDS011;46574;52.818;6.516;2023-04-01T04:01:37;5.72;;;4.38;;
60722;SDS011;46574;52.818;6.516;2023-04-01T04:04:03;4.55;;;3.60;;
60722;SDS011;46574;52.818;6.516;2023-04-01T04:06:29;3.50;;;3.20;;
60722;SDS011;46574;52.818;6.516;2023-04-01T04:08:55;4.68;;;4.15;;
60722;SDS011;46574;52.818;6.516;2023-04-01T04:11:21;4.43;;;3.90;;
60722;SDS011;46574;52.818;6.516;2023-04-01T04:13:47;6.57;;;5.05;;
60722;SDS011;46574;52.818;6.516;2023-04-01T04:16:14;4.93;;;4.07;;
60722;SDS011;46574;52.818;6.516;2023-04-01T04:18:41;4.90;;;4.40;;
60722;SDS011;46574;52.818;6.516;2023-04-01T04:21:06;4.75;;;4.18;;
60722;SDS011;46574;52.818;6.516;2023-04-01T04:23:36;4.60;;;4.18;;
60722;SDS011;46574;52.818;6.516;2023-04-01T04:26:04;4.18;;;3.78;;
60722;SDS011;46574;52.818;6.516;2023-04-01T04:28:33;4.60;;;4.20;;
60722;SDS011;46574;52.818;6.516;2023-04-01T04:30:59;6.38;;;5.30;;
60722;SDS011;46574;52.818;6.516;2023-04-01T04:33:26;5.72;;;4.72;;
60722;SDS011;46574;52.818;6.516;2023-04-01T04:35:54;4.63;;;4.05;;
60722;SDS011;46574;52.818;6.516;2023-04-01T04:38:21;6.03;;;4.95;;
60722;SDS011;46574;52.818;6.516;2023-04-01T04:40:46;5.38;;;4.78;;
60722;SDS011;46574;52.818;6.516;2023-04-01T04:43:13;5.00;;;4.50;;
60722;SDS011;46574;52.818;6.516;2023-04-01T04:45:40;5.35;;;4.78;;
60722;SDS011;46574;52.818;6.516;2023-04-01T04:48:07;4.93;;;4.10;;
60722;SDS011;46574;52.818;6.516;2023-04-01T04:50:34;4.85;;;4.10;;
60722;SDS011;46574;52.818;6.516;2023-04-01T04:53:00;6.40;;;4.88;;
60722;SDS011;46574;52.818;6.516;2023-04-01T04:55:25;6.07;;;4.65;;
60722;SDS011;46574;52.818;6.516;2023-04-01T04:57:51;6.43;;;4.82;;
60722;SDS011;46574;52.818;6.516;2023-04-01T05:00:17;5.30;;;4.40;;
60722;SDS011;46574;52.818;6.516;2023-04-01T05:02:43;5.47;;;4.40;;
60722;SDS011;46574;52.818;6.516;2023-04-01T05:05:08;6.20;;;4.78;;
60722;SDS011;46574;52.818;6.516;2023-04-01T05:07:35;5.90;;;4.82;;
60722;SDS011;46574;52.818;6.516;2023-04-01T05:10:01;5.18;;;4.53;;
60722;SDS011;46574;52.818;6.516;2023-04-01T05:12:26;4.13;;;3.65;;
60722;SDS011;46574;52.818;6.516;2023-04-01T05:14:52;5.18;;;4.53;;
60722;SDS011;46574;52.818;6.516;2023-04-01T05:17:18;6.32;;;4.80;;
60722;SDS011;46574;52.818;6.516;2023-04-01T05:19:43;6.30;;;4.85;;
60722;SDS011;46574;52.818;6.516;2023-04-01T05:22:09;7.25;;;4.97;;
60722;SDS011;46574;52.818;6.516;2023-04-01T05:24:35;5.20;;;4.28;;
60722;SDS011;46574;52.818;6.516;2023-04-01T05:27:00;5.72;;;4.68;;
60722;SDS011;46574;52.818;6.516;2023-04-01T05:29:26;6.65;;;5.03;;
60722;SDS011;46574;52.818;6.516;2023-04-01T05:31:52;6.85;;;4.97;;
60722;SDS011;46574;52.818;6.516;2023-04-01T05:34:18;6.93;;;4.80;;
60722;SDS011;46574;52.818;6.516;2023-04-01T05:36:44;5.97;;;4.50;;
60722;SDS011;46574;52.818;6.516;2023-04-01T05:39:10;6.80;;;4.93;;
60722;SDS011;46574;52.818;6.516;2023-04-01T05:41:36;5.22;;;4.63;;
60722;SDS011;46574;52.818;6.516;2023-04-01T05:44:03;8.25;;;5.30;;
60722;SDS011;46574;52.818;6.516;2023-04-01T05:46:29;8.07;;;5.22;;
60722;SDS011;46574;52.818;6.516;2023-04-01T05:48:55;6.13;;;5.05;;
60722;SDS011;46574;52.818;6.516;2023-04-01T05:51:21;5.88;;;4.13;;
60722;SDS011;46574;52.818;6.516;2023-04-01T05:53:47;7.22;;;5.32;;
60722;SDS011;46574;52.818;6.516;2023-04-01T05:56:13;7.47;;;5.20;;
60722;SDS011;46574;52.818;6.516;2023-04-01T05:58:39;6.35;;;4.63;;
60722;SDS011;46574;52.818;6.516;2023-04-01T06:01:09;7.47;;;5.25;;
60722;SDS011;46574;52.818;6.516;2023-04-01T06:03:36;5.75;;;3.90;;
60722;SDS011;46574;52.818;6.516;2023-04-01T06:06:01;7.28;;;5.07;;
60722;SDS011;46574;52.818;6.516;2023-04-01T06:08:29;6.18;;;4.60;;
60722;SDS011;46574;52.818;6.516;2023-04-01T06:13:56;5.30;;;4.20;;
60722;SDS011;46574;52.818;6.516;2023-04-01T06:25:02;6.95;;;4.97;;
60722;SDS011;46574;52.818;6.516;2023-04-01T06:30:33;6.97;;;5.30;;
60722;SDS011;46574;52.818;6.516;2023-04-01T06:35:35;8.75;;;6.80;;
60722;SDS011;46574;52.818;6.516;2023-04-01T06:38:14;8.75;;;6.88;;
60722;SDS011;46574;52.818;6.516;2023-04-01T06:49:21;13.05;;;9.30;;
60722;SDS011;46574;52.818;6.516;2023-04-01T06:51:53;9.88;;;7.78;;
60722;SDS011;46574;52.818;6.516;2023-04-01T06:54:32;12.63;;;9.68;;
60722;SDS011;46574;52.818;6.516;2023-04-01T06:57:03;12.43;;;9.02;;
60722;SDS011;46574;52.818;6.516;2023-04-01T06:59:46;12.10;;;8.60;;
60722;SDS011;46574;52.818;6.516;2023-04-01T07:02:22;11.23;;;8.73;;
60722;SDS011;46574;52.818;6.516;2023-04-01T07:04:59;11.95;;;8.40;;
60722;SDS011;46574;52.818;6.516;2023-04-01T07:10:04;9.00;;;7.10;;
60722;SDS011;46574;52.818;6.516;2023-04-01T07:12:51;9.60;;;6.70;;
60722;SDS011;46574;52.818;6.516;2023-04-01T07:15:22;7.78;;;5.82;;
60722;SDS011;46574;52.818;6.516;2023-04-01T07:17:55;8.15;;;6.00;;
60722;SDS011;46574;52.818;6.516;2023-04-01T07:20:26;8.00;;;5.55;;
60722;SDS011;46574;52.818;6.516;2023-04-01T07:22:56;7.93;;;5.75;;
60722;SDS011;46574;52.818;6.516;2023-04-01T07:28:05;6.82;;;5.20;;
60722;SDS011;46574;52.818;6.516;2023-04-01T07:30:44;7.72;;;5.57;;
60722;SDS011;46574;52.818;6.516;2023-04-01T07:33:33;7.28;;;5.13;;
60722;SDS011;46574;52.818;6.516;2023-04-01T07:36:08;6.57;;;4.90;;
60722;SDS011;46574;52.818;6.516;2023-04-01T07:38:54;6.20;;;4.85;;
60722;SDS011;46574;52.818;6.516;2023-04-01T07:41:40;6.20;;;4.93;;
60722;SDS011;46574;52.818;6.516;2023-04-01T07:56:02;5.50;;;3.85;;
60722;SDS011;46574;52.818;6.516;2023-04-01T08:01:36;5.53;;;4.55;;
60722;SDS011;46574;52.818;6.516;2023-04-01T08:06:47;6.13;;;4.75;;
60722;SDS011;46574;52.818;6.516;2023-04-01T08:09:29;6.18;;;5.05;;
60722;SDS011;46574;52.818;6.516;2023-04-01T08:20:42;7.05;;;5.55;;
60722;SDS011;46574;52.818;6.516;2023-04-01T08:23:32;8.32;;;6.68;;
60722;SDS011;46574;52.818;6.516;2023-04-01T08:28:41;9.07;;;6.75;;
60722;SDS011;46574;52.818;6.516;2023-04-01T08:34:25;7.18;;;5.50;;
60722;SDS011;46574;52.818;6.516;2023-04-01T08:37:10;6.57;;;5.28;;
60722;SDS011;46574;52.818;6.516;2023-04-01T08:39:46;6.82;;;5.25;;
60722;SDS011;46574;52.818;6.516;2023-04-01T08:47:42;4.78;;;3.50;;
60722;SDS011;46574;52.818;6.516;2023-04-01T08:59:16;3.15;;;2.63;;
60722;SDS011;46574;52.818;6.516;2023-04-01T09:37:31;5.57;;;4.78;;
60722;SDS011;46574;52.818;6.516;2023-04-01T10:07:28;8.70;;;7.22;;
60722;SDS011;46574;52.818;6.516;2023-04-01T10:10:25;8.13;;;6.63;;
60722;SDS011;46574;52.818;6.516;2023-04-01T10:21:47;9.50;;;7.50;;
60722;SDS011;46574;52.818;6.516;2023-04-01T10:29:25;8.52;;;7.30;;
60722;SDS011;46574;52.818;6.516;2023-04-01T10:32:12;7.45;;;6.40;;
60722;SDS011;46574;52.818;6.516;2023-04-01T10:35:06;7.93;;;6.95;;
60722;SDS011;46574;52.818;6.516;2023-04-01T10:37:48;7.30;;;6.35;;
60722;SDS011;46574;52.818;6.516;2023-04-01T10:40:43;9.02;;;7.00;;
60722;SDS011;46574;52.818;6.516;2023-04-01T10:55:04;9.55;;;8.38;;
60722;SDS011;46574;52.818;6.516;2023-04-01T11:06:38;11.75;;;9.57;;
60722;SDS011;46574;52.818;6.516;2023-04-01T11:12:29;8.93;;;7.93;;
60722;SDS011;46574;52.818;6.516;2023-04-01T11:15:31;7.65;;;6.68;;
60722;SDS011;46574;52.818;6.516;2023-04-01T11:18:40;5.72;;;5.22;;
60722;SDS011;46574;52.818;6.516;2023-04-01T11:27:25;6.50;;;5.90;;
60722;SDS011;46574;52.818;6.516;2023-04-01T11:32:46;5.65;;;5.15;;
60722;SDS011;46574;52.818;6.516;2023-04-01T11:38:15;5.85;;;5.25;;
60722;SDS011;46574;52.818;6.516;2023-04-01T11:49:25;5.63;;;5.10;;
60722;SDS011;46574;52.818;6.516;2023-04-01T11:57:59;5.05;;;4.65;;
60722;SDS011;46574;52.818;6.516;2023-04-01T12:00:38;4.80;;;4.40;;
60722;SDS011;46574;52.818;6.516;2023-04-01T12:03:32;5.38;;;4.88;;
60722;SDS011;46574;52.818;6.516;2023-04-01T12:18:02;4.82;;;4.35;;
60722;SDS011;46574;52.818;6.516;2023-04-01T12:23:42;5.05;;;4.55;;
60722;SDS011;46574;52.818;6.516;2023-04-01T12:32:15;4.53;;;4.13;;
60722;SDS011;46574;52.818;6.516;2023-04-01T12:51:59;4.38;;;4.00;;
60722;SDS011;46574;52.818;6.516;2023-04-01T13:08:27;5.47;;;4.75;;
60722;SDS011;46574;52.818;6.516;2023-04-01T13:16:50;4.22;;;3.83;;
60722;SDS011;46574;52.818;6.516;2023-04-01T13:22:17;4.07;;;3.72;;
60722;SDS011;46574;52.818;6.516;2023-04-01T13:25:06;4.50;;;4.10;;
60722;SDS011;46574;52.818;6.516;2023-04-01T13:27:48;3.83;;;3.53;;
60722;SDS011;46574;52.818;6.516;2023-04-01T13:30:26;4.00;;;3.70;;
60722;SDS011;46574;52.818;6.516;2023-04-01T13:33:01;4.00;;;3.70;;
60722;SDS011;46574;52.818;6.516;2023-04-01T13:43:36;4.40;;;4.10;;
60722;SDS011;46574;52.818;6.516;2023-04-01T13:49:01;4.60;;;4.20;;
60722;SDS011;46574;52.818;6.516;2023-04-01T13:59:56;4.40;;;4.00;;
60722;SDS011;46574;52.818;6.516;2023-04-01T14:02:31;4.15;;;3.80;;
60722;SDS011;46574;52.818;6.516;2023-04-01T14:10:18;3.40;;;3.10;;
60722;SDS011;46574;52.818;6.516;2023-04-01T14:16:11;3.72;;;3.42;;
60722;SDS011;46574;52.818;6.516;2023-04-01T14:21:34;3.25;;;3.05;;
60722;SDS011;46574;52.818;6.516;2023-04-01T14:24:23;4.32;;;3.42;;
60722;SDS011;46574;52.818;6.516;2023-04-01T14:35:58;3.10;;;2.90;;
60722;SDS011;46574;52.818;6.516;2023-04-01T14:41:59;3.00;;;2.80;;
60722;SDS011;46574;52.818;6.516;2023-04-01T14:50:43;2.72;;;2.53;;
60722;SDS011;46574;52.818;6.516;2023-04-01T14:55:59;2.75;;;2.40;;
60722;SDS011;46574;52.818;6.516;2023-04-01T15:09:17;3.08;;;2.88;;
60722;SDS011;46574;52.818;6.516;2023-04-01T15:12:03;2.70;;;2.50;;
60722;SDS011;46574;52.818;6.516;2023-04-01T15:20:20;2.92;;;2.72;;
60722;SDS011;46574;52.818;6.516;2023-04-01T15:23:23;2.85;;;2.65;;
60722;SDS011;46574;52.818;6.516;2023-04-01T15:29:06;2.95;;;2.75;;
60722;SDS011;46574;52.818;6.516;2023-04-01T15:31:53;3.30;;;3.10;;
60722;SDS011;46574;52.818;6.516;2023-04-01T15:34:35;3.42;;;3.22;;
60722;SDS011;46574;52.818;6.516;2023-04-01T15:37:14;3.65;;;2.95;;
60722;SDS011;46574;52.818;6.516;2023-04-01T15:42:54;3.10;;;2.80;;
60722;SDS011;46574;52.818;6.516;2023-04-01T16:00:06;3.00;;;2.80;;
60722;SDS011;46574;52.818;6.516;2023-04-01T16:02:51;3.10;;;2.80;;
60722;SDS011;46574;52.818;6.516;2023-04-01T16:11:34;2.70;;;2.50;;
60722;SDS011;46574;52.818;6.516;2023-04-01T16:19:49;2.90;;;2.70;;
60722;SDS011;46574;52.818;6.516;2023-04-01T16:30:41;2.78;;;2.58;;
60722;SDS011;46574;52.818;6.516;2023-04-01T16:41:57;3.40;;;3.20;;
60722;SDS011;46574;52.818;6.516;2023-04-01T16:44:50;3.55;;;3.25;;
60722;SDS011;46574;52.818;6.516;2023-04-01T16:51:16;3.92;;;3.63;;
60722;SDS011;46574;52.818;6.516;2023-04-01T16:53:42;3.65;;;3.35;;
60722;SDS011;46574;52.818;6.516;2023-04-01T16:56:11;3.22;;;3.03;;
60722;SDS011;46574;52.818;6.516;2023-04-01T16:58:42;3.92;;;3.63;;
60722;SDS011;46574;52.818;6.516;2023-04-01T17:01:36;4.03;;;3.72;;
60722;SDS011;46574;52.818;6.516;2023-04-01T17:04:20;4.53;;;4.13;;
60722;SDS011;46574;52.818;6.516;2023-04-01T17:12:40;5.72;;;5.20;;
60722;SDS011;46574;52.818;6.516;2023-04-01T17:18:01;5.40;;;4.88;;
60722;SDS011;46574;52.818;6.516;2023-04-01T17:20:48;6.13;;;5.50;;
60722;SDS011;46574;52.818;6.516;2023-04-01T17:25:59;6.07;;;5.55;;
60722;SDS011;46574;52.818;6.516;2023-04-01T17:31:37;6.50;;;5.90;;
60722;SDS011;46574;52.818;6.516;2023-04-01T17:34:29;6.20;;;5.60;;
60722;SDS011;46574;52.818;6.516;2023-04-01T17:42:18;6.32;;;5.82;;
60722;SDS011;46574;52.818;6.516;2023-04-01T17:52:42;6.22;;;5.60;;
60722;SDS011;46574;52.818;6.516;2023-04-01T17:58:03;6.68;;;5.85;;
60722;SDS011;46574;52.818;6.516;2023-04-01T18:03:42;5.97;;;5.38;;
60722;SDS011;46574;52.818;6.516;2023-04-01T18:17:27;7.78;;;5.80;;
60722;SDS011;46574;52.818;6.516;2023-04-01T18:20:02;6.80;;;6.05;;
60722;SDS011;46574;52.818;6.516;2023-04-01T18:25:46;6.90;;;5.90;;
60722;SDS011;46574;52.818;6.516;2023-04-01T18:41:48;7.82;;;7.03;;
60722;SDS011;46574;52.818;6.516;2023-04-01T18:44:29;8.20;;;7.35;;
60722;SDS011;46574;52.818;6.516;2023-04-01T18:47:22;7.47;;;6.68;;
60722;SDS011;46574;52.818;6.516;2023-04-01T18:52:46;7.20;;;6.47;;
60722;SDS011;46574;52.818;6.516;2023-04-01T18:55:31;8.30;;;7.07;;
60722;SDS011;46574;52.818;6.516;2023-04-01T18:58:11;9.13;;;6.82;;
60722;SDS011;46574;52.818;6.516;2023-04-01T19:00:52;8.63;;;7.72;;
60722;SDS011;46574;52.818;6.516;2023-04-01T19:06:26;8.73;;;7.88;;
60722;SDS011;46574;52.818;6.516;2023-04-01T19:09:17;8.50;;;7.60;;
60722;SDS011;46574;52.818;6.516;2023-04-01T19:17:27;12.63;;;8.48;;
60722;SDS011;46574;52.818;6.516;2023-04-01T19:27:50;9.77;;;8.18;;
60722;SDS011;46574;52.818;6.516;2023-04-01T19:36:29;12.13;;;8.88;;
60722;SDS011;46574;52.818;6.516;2023-04-01T19:41:50;12.95;;;9.18;;
60722;SDS011;46574;52.818;6.516;2023-04-01T19:44:29;9.85;;;8.85;;
60722;SDS011;46574;52.818;6.516;2023-04-01T19:47:13;10.80;;;8.27;;
60722;SDS011;46574;52.818;6.516;2023-04-01T19:52:30;10.30;;;8.70;;
60722;SDS011;46574;52.818;6.516;2023-04-01T19:55:20;9.55;;;8.55;;
60722;SDS011;46574;52.818;6.516;2023-04-01T19:58:02;11.75;;;8.95;;
60722;SDS011;46574;52.818;6.516;2023-04-01T20:01:03;10.75;;;8.68;;
60722;SDS011;46574;52.818;6.516;2023-04-01T20:14:59;10.50;;;8.75;;
60722;SDS011;46574;52.818;6.516;2023-04-01T20:17:42;10.88;;;9.05;;
60722;SDS011;46574;52.818;6.516;2023-04-01T20:27:45;10.48;;;8.88;;
60722;SDS011;46574;52.818;6.516;2023-04-01T20:30:34;10.23;;;8.73;;
60722;SDS011;46574;52.818;6.516;2023-04-01T20:44:13;11.63;;;9.30;;
60722;SDS011;46574;52.818;6.516;2023-04-01T20:46:50;11.23;;;9.82;;
60722;SDS011;46574;52.818;6.516;2023-04-01T20:49:50;11.98;;;9.40;;
60722;SDS011;46574;52.818;6.516;2023-04-01T20:52:32;14.35;;;9.90;;
60722;SDS011;46574;52.818;6.516;2023-04-01T20:55:19;12.85;;;9.18;;
60722;SDS011;46574;52.818;6.516;2023-04-01T21:00:28;11.98;;;9.98;;
60722;SDS011;46574;52.818;6.516;2023-04-01T21:03:18;13.32;;;9.68;;
60722;SDS011;46574;52.818;6.516;2023-04-01T21:08:45;14.50;;;9.75;;
60722;SDS011;46574;52.818;6.516;2023-04-01T21:11:23;13.95;;;9.98;;
60722;SDS011;46574;52.818;6.516;2023-04-01T21:14:24;11.07;;;9.50;;
60722;SDS011;46574;52.818;6.516;2023-04-01T21:20:05;13.07;;;9.75;;
60722;SDS011;46574;52.818;6.516;2023-04-01T21:23:17;11.90;;;10.18;;
60722;SDS011;46574;52.818;6.516;2023-04-01T21:26:01;13.13;;;9.40;;
60722;SDS011;46574;52.818;6.516;2023-04-01T21:31:27;10.75;;;8.95;;
60722;SDS011;46574;52.818;6.516;2023-04-01T21:45:03;12.50;;;9.57;;
60722;SDS011;46574;52.818;6.516;2023-04-01T21:47:42;10.20;;;9.10;;
60722;SDS011;46574;52.818;6.516;2023-04-01T21:50:41;11.85;;;9.65;;
60722;SDS011;46574;52.818;6.516;2023-04-01T21:56:05;13.00;;;9.95;;
60722;SDS011;46574;52.818;6.516;2023-04-01T22:01:50;12.57;;;10.20;;
60722;SDS011;46574;52.818;6.516;2023-04-01T22:18:45;11.02;;;8.70;;
60722;SDS011;46574;52.818;6.516;2023-04-01T22:21:43;12.20;;;9.30;;
60722;SDS011;46574;52.818;6.516;2023-04-01T22:32:56;11.77;;;9.20;;
60722;SDS011;46574;52.818;6.516;2023-04-01T22:41:24;11.07;;;9.25;;
60722;SDS011;46574;52.818;6.516;2023-04-01T22:44:25;11.93;;;8.68;;
60722;SDS011;46574;52.818;6.516;2023-04-01T22:47:08;12.43;;;9.05;;
60722;SDS011;46574;52.818;6.516;2023-04-01T22:49:59;12.95;;;9.18;;
60722;SDS011;46574;52.818;6.516;2023-04-01T22:53:00;11.77;;;9.25;;
60722;SDS011;46574;52.818;6.516;2023-04-01T22:55:41;9.90;;;8.15;;
60722;SDS011;46574;52.818;6.516;2023-04-01T22:58:13;11.82;;;9.07;;
60722;SDS011;46574;52.818;6.516;2023-04-01T23:00:45;13.27;;;8.80;;
60722;SDS011;46574;52.818;6.516;2023-04-01T23:03:19;10.88;;;8.93;;
60722;SDS011;46574;52.818;6.516;2023-04-01T23:05:47;11.30;;;8.30;;
60722;SDS011;46574;52.818;6.516;2023-04-01T23:11:04;11.07;;;9.55;;
60722;SDS011;46574;52.818;6.516;2023-04-01T23:13:34;10.48;;;7.95;;
60722;SDS011;46574;52.818;6.516;2023-04-01T23:16:07;9.80;;;7.70;;
60722;SDS011;46574;52.818;6.516;2023-04-01T23:21:19;11.02;;;8.63;;
60722;SDS011;46574;52.818;6.516;2023-04-01T23:24:21;8.82;;;7.25;;
60722;SDS011;46574;52.818;6.516;2023-04-01T23:26:56;9.30;;;7.53;;
60722;SDS011;46574;52.818;6.516;2023-04-01T23:29:25;10.10;;;7.75;;
60722;SDS011;46574;52.818;6.516;2023-04-01T23:32:02;11.65;;;7.57;;
60722;SDS011;46574;52.818;6.516;2023-04-01T23:34:32;9.15;;;7.22;;
60722;SDS011;46574;52.818;6.516;2023-04-01T23:37:04;9.32;;;7.53;;
60722;SDS011;46574;52.818;6.516;2023-04-01T23:39:35;11.23;;;7.28;;
60722;SDS011;46574;52.818;6.516;2023-04-01T23:45:04;10.18;;;7.28;;
60722;SDS011;46574;52.818;6.516;2023-04-01T23:47:37;9.23;;;7.22;;
60722;SDS011;46574;52.818;6.516;2023-04-01T23:52:40;9.80;;;7.53;;
60722;SDS011;46574;52.818;6.516;2023-04-01T23:55:13;12.35;;;7.82;;
